createdAt,value
2024-05-09T00:00:40.340Z,7.88
2024-05-09T00:03:10.069Z,8.20
2024-05-09T00:05:39.995Z,8.13
2024-05-09T00:08:09.067Z,7.68
2024-05-09T00:10:38.554Z,8.45
2024-05-09T00:13:07.684Z,8.18
2024-05-09T00:15:35.462Z,8.07
2024-05-09T00:18:04.102Z,8.07
2024-05-09T00:23:01.164Z,8.40
2024-05-09T00:25:28.095Z,7.43
2024-05-09T00:27:54.948Z,8.23
2024-05-09T00:30:31.041Z,8.00
2024-05-09T00:33:01.666Z,8.20
2024-05-09T00:35:28.869Z,7.68
2024-05-09T00:37:55.850Z,7.78
2024-05-09T00:40:31.027Z,8.10
2024-05-09T00:43:08.920Z,8.35
2024-05-09T00:45:36.099Z,7.80
2024-05-09T00:48:07.331Z,8.10
2024-05-09T00:50:38.016Z,8.52
2024-05-09T00:53:13.027Z,8.80
2024-05-09T00:55:40.742Z,8.85
2024-05-09T00:58:11.385Z,8.20
2024-05-09T01:00:40.530Z,8.45
2024-05-09T01:03:11.508Z,8.82
2024-05-09T01:05:40.525Z,8.35
2024-05-09T01:08:08.210Z,8.38
2024-05-09T01:10:36.663Z,8.10
2024-05-09T01:13:04.915Z,8.80
2024-05-09T01:15:32.242Z,8.43
2024-05-09T01:18:06.878Z,8.73
2024-05-09T01:20:41.119Z,8.25
2024-05-09T01:23:11.441Z,9.07
2024-05-09T01:25:38.672Z,9.10
2024-05-09T01:28:06.095Z,8.52
2024-05-09T01:30:36.302Z,8.70
2024-05-09T01:33:07.259Z,8.63
2024-05-09T01:35:36.190Z,9.02
2024-05-09T01:38:03.409Z,8.90
2024-05-09T01:40:37.258Z,8.85
2024-05-09T01:43:07.191Z,8.90
2024-05-09T01:45:34.193Z,9.02
2024-05-09T01:48:01.649Z,9.05
2024-05-09T01:50:37.560Z,9.07
2024-05-09T01:53:08.821Z,8.75
2024-05-09T01:55:35.809Z,9.00
2024-05-09T01:58:02.632Z,9.38
2024-05-09T02:00:38.355Z,9.23
2024-05-09T02:03:15.415Z,9.10
2024-05-09T02:05:47.774Z,8.82
2024-05-09T02:08:18.122Z,9.05
2024-05-09T02:10:46.443Z,8.52
2024-05-09T02:13:13.968Z,8.68
2024-05-09T02:15:40.814Z,8.55
2024-05-09T02:18:08.994Z,8.38
2024-05-09T02:20:39.223Z,8.60
2024-05-09T02:23:06.956Z,9.00
2024-05-09T02:25:34.618Z,9.23
2024-05-09T02:28:01.648Z,9.15
2024-05-09T02:32:58.512Z,8.90
2024-05-09T02:35:26.745Z,8.98
2024-05-09T02:37:53.681Z,9.40
2024-05-09T02:40:28.363Z,9.65
2024-05-09T02:43:01.051Z,9.98
2024-05-09T02:45:27.868Z,9.18
2024-05-09T02:47:54.975Z,8.93
2024-05-09T02:50:29.860Z,9.18
2024-05-09T02:53:03.924Z,8.30
2024-05-09T02:55:30.846Z,8.70
2024-05-09T02:57:57.736Z,7.93
2024-05-09T03:00:34.177Z,8.38
2024-05-09T03:03:07.611Z,8.23
2024-05-09T03:05:35.193Z,8.82
2024-05-09T03:08:02.221Z,7.05
2024-05-09T03:10:35.236Z,7.40
2024-05-09T03:13:12.961Z,7.82
2024-05-09T03:15:41.290Z,7.57
2024-05-09T03:18:08.822Z,7.60
2024-05-09T03:20:37.008Z,7.40
2024-05-09T03:23:05.575Z,7.90
2024-05-09T03:25:33.158Z,8.48
2024-05-09T03:28:00.044Z,8.25
2024-05-09T03:30:38.461Z,8.80
2024-05-09T03:33:13.968Z,8.05
2024-05-09T03:35:42.254Z,8.15
2024-05-09T03:38:09.337Z,8.70
2024-05-09T03:40:36.411Z,9.10
2024-05-09T03:43:03.332Z,8.98
2024-05-09T03:45:30.247Z,8.55
2024-05-09T03:47:58.762Z,8.63
2024-05-09T03:50:30.619Z,8.85
2024-05-09T03:55:29.305Z,8.57
2024-05-09T03:57:56.406Z,8.57
2024-05-09T04:00:31.257Z,9.23
2024-05-09T04:03:06.392Z,8.77
2024-05-09T04:05:35.313Z,9.07
2024-05-09T04:08:02.412Z,8.98
2024-05-09T04:10:33.590Z,8.63
2024-05-09T04:13:02.613Z,8.57
2024-05-09T04:15:29.807Z,9.00
2024-05-09T04:17:56.928Z,9.32
2024-05-09T04:20:33.331Z,8.52
2024-05-09T04:23:13.594Z,8.88
2024-05-09T04:25:43.000Z,9.57
2024-05-09T04:28:10.171Z,9.38
2024-05-09T04:30:40.022Z,9.35
2024-05-09T04:33:11.851Z,9.35
2024-05-09T04:35:44.170Z,8.63
2024-05-09T04:38:12.516Z,8.95
2024-05-09T04:40:39.896Z,8.82
2024-05-09T04:43:13.374Z,9.38
2024-05-09T04:45:40.416Z,9.38
2024-05-09T04:48:08.022Z,9.02
2024-05-09T04:50:38.327Z,10.02
2024-05-09T04:53:08.817Z,9.38
2024-05-09T04:55:37.266Z,9.77
2024-05-09T04:58:05.438Z,9.40
2024-05-09T05:00:37.139Z,9.05
2024-05-09T05:03:13.218Z,9.30
2024-05-09T05:08:18.393Z,9.68
2024-05-09T05:10:46.811Z,9.55
2024-05-09T05:13:22.276Z,8.90
2024-05-09T05:15:57.234Z,9.30
2024-05-09T05:18:26.528Z,8.95
2024-05-09T05:20:55.364Z,9.52
2024-05-09T05:23:23.277Z,9.75
2024-05-09T05:25:52.487Z,9.18
2024-05-09T05:28:20.298Z,8.80
2024-05-09T05:30:47.262Z,8.45
2024-05-09T05:33:16.080Z,9.02
2024-05-09T05:35:43.390Z,8.73
2024-05-09T05:38:11.092Z,8.38
2024-05-09T05:40:39.633Z,8.73
2024-05-09T05:43:08.863Z,9.45
2024-05-09T05:45:36.103Z,8.98
2024-05-09T05:48:07.107Z,9.20
2024-05-09T05:50:37.296Z,8.23
2024-05-09T05:53:07.727Z,8.82
2024-05-09T05:55:36.682Z,8.40
2024-05-09T05:58:03.848Z,8.70
2024-05-09T06:00:38.261Z,10.05
2024-05-09T06:03:08.622Z,9.18
2024-05-09T06:05:37.338Z,8.65
2024-05-09T06:08:04.815Z,9.50
2024-05-09T06:10:38.091Z,9.93
2024-05-09T06:13:08.022Z,9.83
2024-05-09T06:15:34.949Z,9.35
2024-05-09T06:18:04.913Z,8.52
2024-05-09T06:20:36.171Z,8.65
2024-05-09T06:23:06.786Z,8.07
2024-05-09T06:25:35.021Z,9.30
2024-05-09T06:28:02.902Z,8.75
2024-05-09T06:30:37.399Z,9.07
2024-05-09T06:33:08.862Z,8.73
2024-05-09T06:35:37.221Z,9.32
2024-05-09T06:38:04.917Z,10.20
2024-05-09T06:40:38.005Z,10.95
2024-05-09T06:43:18.468Z,9.60
2024-05-09T06:45:48.089Z,9.52
2024-05-09T06:48:17.643Z,8.82
2024-05-09T06:50:45.053Z,9.05
2024-05-09T06:53:14.463Z,8.80
2024-05-09T06:55:41.503Z,8.93
2024-05-09T06:58:09.246Z,9.48
2024-05-09T07:00:39.757Z,9.90
2024-05-09T07:03:17.132Z,10.20
2024-05-09T07:05:47.216Z,10.30
2024-05-09T07:08:15.274Z,10.15
2024-05-09T07:10:42.228Z,9.35
2024-05-09T07:13:14.193Z,9.07
2024-05-09T07:15:42.084Z,10.55
2024-05-09T07:18:13.914Z,10.30
2024-05-09T07:20:41.558Z,10.35
2024-05-09T07:23:10.130Z,9.32
2024-05-09T07:25:37.507Z,9.30
2024-05-09T07:28:04.746Z,10.20
2024-05-09T07:30:34.339Z,9.77
2024-05-09T07:33:03.562Z,9.68
2024-05-09T07:35:31.301Z,9.30
2024-05-09T07:37:58.772Z,10.20
2024-05-09T07:40:33.060Z,9.70
2024-05-09T07:43:07.008Z,9.00
2024-05-09T07:52:23.928Z,8.57
2024-05-09T07:53:39.391Z,7.65
2024-05-09T07:56:10.077Z,7.03
2024-05-09T07:58:37.792Z,6.70
2024-05-09T08:01:05.483Z,7.20
2024-05-09T08:03:34.215Z,8.15
2024-05-09T08:06:01.349Z,7.82
2024-05-09T08:08:28.262Z,7.75
2024-05-09T08:10:55.304Z,7.93
2024-05-09T08:13:22.289Z,7.95
2024-05-09T08:15:49.365Z,8.18
2024-05-09T08:18:17.842Z,8.60
2024-05-09T08:20:48.472Z,8.65
2024-05-09T08:23:15.470Z,8.90
2024-05-09T08:25:42.378Z,8.18
2024-05-09T08:28:10.331Z,8.32
2024-05-09T08:30:38.276Z,7.35
2024-05-09T08:33:07.049Z,7.60
2024-05-09T08:35:35.580Z,7.45
2024-05-09T08:38:06.966Z,8.18
2024-05-09T08:40:36.466Z,8.85
2024-05-09T08:43:09.822Z,8.30
2024-05-09T08:45:42.114Z,7.68
2024-05-09T08:48:11.914Z,7.30
2024-05-09T08:50:41.749Z,6.93
2024-05-09T08:53:09.257Z,6.65
2024-05-09T08:55:40.541Z,5.93
2024-05-09T08:58:19.249Z,6.03
2024-05-09T09:00:47.480Z,6.85
2024-05-09T09:03:19.518Z,5.97
2024-05-09T09:06:06.508Z,6.72
2024-05-09T09:08:33.346Z,5.97
2024-05-09T09:11:00.283Z,5.93
2024-05-09T09:13:27.497Z,5.25
2024-05-09T09:15:57.915Z,5.63
2024-05-09T09:18:26.765Z,6.07
2024-05-09T09:20:54.687Z,6.00
2024-05-09T09:23:21.758Z,6.18
2024-05-09T09:25:48.612Z,5.80
2024-05-09T09:28:15.964Z,5.50
2024-05-09T09:30:43.521Z,6.18
2024-05-09T09:33:11.425Z,5.47
2024-05-09T09:35:40.440Z,5.30
2024-05-09T09:38:09.832Z,5.60
2024-05-09T09:40:42.505Z,4.97
2024-05-09T09:43:21.563Z,5.18
2024-05-09T09:45:52.450Z,4.93
2024-05-09T09:48:21.258Z,5.60
2024-05-09T09:50:51.119Z,5.38
2024-05-09T09:53:28.108Z,5.38
2024-05-09T09:55:59.191Z,5.20
2024-05-09T09:58:27.316Z,5.53
2024-05-09T10:00:54.560Z,5.18
2024-05-09T10:03:21.663Z,5.13
2024-05-09T10:05:49.291Z,5.05
2024-05-09T10:08:18.185Z,4.88
2024-05-09T10:10:48.741Z,4.85
2024-05-09T10:13:15.959Z,4.72
2024-05-09T10:15:54.099Z,4.65
2024-05-09T10:18:27.243Z,4.70
2024-05-09T10:20:56.420Z,4.30
2024-05-09T10:23:32.116Z,4.50
2024-05-09T10:26:00.792Z,5.00
2024-05-09T10:28:32.370Z,4.43
2024-05-09T10:31:09.345Z,4.60
2024-05-09T10:33:45.933Z,4.43
2024-05-09T10:36:14.550Z,4.72
2024-05-09T10:38:42.877Z,5.22
2024-05-09T10:41:10.290Z,4.88
2024-05-09T10:43:41.079Z,5.03
2024-05-09T10:46:08.955Z,4.82
2024-05-09T10:48:39.837Z,5.18
2024-05-09T10:51:07.719Z,4.90
2024-05-09T10:53:45.028Z,4.95
2024-05-09T10:56:13.762Z,5.05
2024-05-09T10:58:40.830Z,4.90
2024-05-09T11:01:09.063Z,4.80
2024-05-09T11:03:37.014Z,4.80
2024-05-09T11:06:05.415Z,4.80
2024-05-09T11:08:33.970Z,5.25
2024-05-09T11:11:03.025Z,5.03
2024-05-09T11:13:31.743Z,4.75
2024-05-09T11:16:02.581Z,4.15
2024-05-09T11:18:35.169Z,4.70
2024-05-09T11:21:12.239Z,4.47
2024-05-09T11:23:39.456Z,4.28
2024-05-09T11:26:07.516Z,4.97
2024-05-09T11:28:35.953Z,4.85
2024-05-09T11:31:10.839Z,4.97
2024-05-09T11:33:40.769Z,5.18
2024-05-09T11:36:08.579Z,4.60
2024-05-09T11:38:35.591Z,4.78
2024-05-09T11:41:03.923Z,4.70
2024-05-09T11:43:30.827Z,4.65
2024-05-09T11:45:58.223Z,4.90
2024-05-09T11:48:26.694Z,4.70
2024-05-09T11:50:55.039Z,4.70
2024-05-09T11:53:22.178Z,5.00
2024-05-09T11:55:49.066Z,4.80
2024-05-09T11:58:17.880Z,4.63
2024-05-09T12:00:45.841Z,4.22
2024-05-09T12:03:13.069Z,4.53
2024-05-09T12:05:40.335Z,4.28
2024-05-09T12:08:07.598Z,4.20
2024-05-09T12:10:36.224Z,3.80
2024-05-09T12:13:06.187Z,3.60
2024-05-09T12:15:37.055Z,3.45
2024-05-09T12:18:05.432Z,3.33
2024-05-09T12:20:37.585Z,3.10
2024-05-09T12:23:09.132Z,3.33
2024-05-09T12:25:37.712Z,3.03
2024-05-09T12:28:04.967Z,3.42
2024-05-09T12:30:37.481Z,3.58
2024-05-09T12:33:12.103Z,3.60
2024-05-09T12:35:40.194Z,3.60
2024-05-09T12:38:07.091Z,3.45
2024-05-09T12:40:37.383Z,3.33
2024-05-09T12:43:10.342Z,3.20
2024-05-09T12:45:38.729Z,3.30
2024-05-09T12:48:08.430Z,3.45
2024-05-09T12:50:36.937Z,3.30
2024-05-09T12:53:05.068Z,2.88
2024-05-09T12:55:40.631Z,2.97
2024-05-09T12:58:18.798Z,2.88
2024-05-09T13:00:46.402Z,4.40
2024-05-09T13:03:14.166Z,4.80
2024-05-09T13:05:41.827Z,4.70
2024-05-09T13:08:08.983Z,4.40
2024-05-09T13:10:36.231Z,4.30
2024-05-09T13:13:03.269Z,4.80
2024-05-09T13:15:31.264Z,4.65
2024-05-09T13:18:01.976Z,4.47
2024-05-09T13:20:34.303Z,4.57
2024-05-09T13:23:07.314Z,4.63
2024-05-09T13:25:35.454Z,3.88
2024-05-09T13:28:06.681Z,4.65
2024-05-09T13:30:39.432Z,4.10
2024-05-09T13:33:10.000Z,4.20
2024-05-09T13:35:37.684Z,3.97
2024-05-09T13:38:05.440Z,4.32
2024-05-09T13:40:35.122Z,5.00
2024-05-09T13:43:04.967Z,4.82
2024-05-09T13:45:32.646Z,4.68
2024-05-09T13:47:59.890Z,4.40
2024-05-09T13:50:34.074Z,4.60
2024-05-09T13:55:32.047Z,4.30
2024-05-09T13:57:59.166Z,4.47
2024-05-09T14:00:38.190Z,4.65
2024-05-09T14:03:12.056Z,4.40
2024-05-09T14:05:39.405Z,4.00
2024-05-09T14:08:06.671Z,4.53
2024-05-09T14:10:33.802Z,4.50
2024-05-09T14:13:01.440Z,3.83
2024-05-09T14:15:28.552Z,3.92
2024-05-09T14:17:55.737Z,3.92
2024-05-09T14:20:30.698Z,4.10
2024-05-09T14:23:00.838Z,3.92
2024-05-09T14:25:29.501Z,3.80
2024-05-09T14:27:58.135Z,3.63
2024-05-09T14:30:35.848Z,3.63
2024-05-09T14:33:06.067Z,3.78
2024-05-09T14:35:34.331Z,3.55
2024-05-09T14:38:01.487Z,3.70
2024-05-09T14:40:39.557Z,3.80
2024-05-09T14:43:11.133Z,3.38
2024-05-09T14:45:38.542Z,3.70
2024-05-09T14:48:06.892Z,3.50
2024-05-09T14:50:37.526Z,3.53
2024-05-09T14:53:10.946Z,3.60
2024-05-09T14:55:40.593Z,3.45
2024-05-09T14:58:10.131Z,3.95
2024-05-09T15:00:42.269Z,3.75
2024-05-09T15:03:12.052Z,3.60
2024-05-09T15:05:41.343Z,3.47
2024-05-09T15:08:08.682Z,3.00
2024-05-09T15:10:37.105Z,3.40
2024-05-09T15:13:06.060Z,3.30
2024-05-09T15:15:34.313Z,2.95
2024-05-09T15:18:01.470Z,3.00
2024-05-09T15:20:34.561Z,3.40
2024-05-09T15:23:04.319Z,3.20
2024-05-09T15:25:31.249Z,3.25
2024-05-09T15:27:58.392Z,3.58
2024-05-09T15:30:31.621Z,3.47
2024-05-09T15:33:01.256Z,3.40
2024-05-09T15:35:28.558Z,3.30
2024-05-09T15:37:55.765Z,3.17
2024-05-09T15:40:34.373Z,2.83
2024-05-09T15:43:06.888Z,3.40
2024-05-09T15:45:34.700Z,3.22
2024-05-09T15:48:02.622Z,2.88
2024-05-09T15:50:36.980Z,3.33
2024-05-09T15:53:08.235Z,3.50
2024-05-09T15:55:36.098Z,3.20
2024-05-09T15:58:04.383Z,2.90
2024-05-09T16:00:37.786Z,3.03
2024-05-09T16:03:09.300Z,2.80
2024-05-09T16:05:36.919Z,3.10
2024-05-09T16:08:04.638Z,2.85
2024-05-09T16:10:33.083Z,2.63
2024-05-09T16:13:02.172Z,2.92
2024-05-09T16:15:29.539Z,2.80
2024-05-09T16:17:56.594Z,2.72
2024-05-09T16:22:53.628Z,3.05
2024-05-09T16:25:20.502Z,2.70
2024-05-09T16:27:47.624Z,3.30
2024-05-09T16:30:24.049Z,3.00
2024-05-09T16:32:55.891Z,3.22
2024-05-09T16:35:22.813Z,3.60
2024-05-09T16:37:50.060Z,3.45
2024-05-09T16:40:25.368Z,3.78
2024-05-09T16:43:03.824Z,3.70
2024-05-09T16:45:30.947Z,3.65
2024-05-09T16:47:58.979Z,4.15
2024-05-09T16:50:31.094Z,3.50
2024-05-09T16:53:00.390Z,3.60
2024-05-09T16:55:27.574Z,3.40
2024-05-09T16:57:55.428Z,3.63
2024-05-09T17:00:31.623Z,3.60
2024-05-09T17:03:07.316Z,3.67
2024-05-09T17:05:34.895Z,3.70
2024-05-09T17:08:02.624Z,3.60
2024-05-09T17:10:33.393Z,3.72
2024-05-09T17:13:03.202Z,3.78
2024-05-09T17:15:31.696Z,3.60
2024-05-09T17:17:58.773Z,3.60
2024-05-09T17:20:32.293Z,3.40
2024-05-09T17:23:03.292Z,3.35
2024-05-09T17:25:30.114Z,3.40
2024-05-09T17:27:59.688Z,3.25
2024-05-09T17:30:32.483Z,3.40
2024-05-09T17:33:07.466Z,3.17
2024-05-09T17:35:36.283Z,3.30
2024-05-09T17:38:04.524Z,3.28
2024-05-09T17:40:35.382Z,2.80
2024-05-09T17:43:05.294Z,3.10
2024-05-09T17:45:33.013Z,3.10
2024-05-09T17:48:00.783Z,2.90
2024-05-09T17:50:34.923Z,3.20
2024-05-09T17:53:04.635Z,2.85
2024-05-09T17:55:31.793Z,2.72
2024-05-09T17:57:58.828Z,3.05
2024-05-09T18:02:56.003Z,3.00
2024-05-09T18:05:23.014Z,3.50
2024-05-09T18:07:50.047Z,3.60
2024-05-09T18:10:25.192Z,3.33
2024-05-09T18:12:56.775Z,3.10
2024-05-09T18:15:23.865Z,3.17
2024-05-09T18:17:52.071Z,3.80
2024-05-09T18:20:28.689Z,3.30
2024-05-09T18:23:05.487Z,3.40
2024-05-09T18:25:32.510Z,3.35
2024-05-09T18:27:59.413Z,2.97
2024-05-09T18:30:32.396Z,3.17
2024-05-09T18:33:02.513Z,2.92
2024-05-09T18:35:29.624Z,3.15
2024-05-09T18:37:56.613Z,2.70
2024-05-09T18:42:53.246Z,2.80
2024-05-09T18:45:20.112Z,2.88
2024-05-09T18:47:47.199Z,2.80
2024-05-09T18:50:20.743Z,3.20
2024-05-09T18:52:55.311Z,2.95
2024-05-09T18:55:22.313Z,3.28
2024-05-09T18:57:49.319Z,3.17
2024-05-09T19:00:27.022Z,3.20
2024-05-09T19:03:01.103Z,3.47
2024-05-09T19:05:28.177Z,3.35
2024-05-09T19:07:55.119Z,3.28
2024-05-09T19:10:25.730Z,3.40
2024-05-09T19:12:55.535Z,5.05
2024-05-09T19:15:22.404Z,6.13
2024-05-09T19:17:49.257Z,6.10
2024-05-09T19:20:24.962Z,5.72
2024-05-09T19:22:56.285Z,5.15
2024-05-09T19:25:23.085Z,5.32
2024-05-09T19:27:49.983Z,4.53
2024-05-09T19:30:25.715Z,4.63
2024-05-09T19:33:01.428Z,4.32
2024-05-09T19:35:28.358Z,4.07
2024-05-09T19:37:55.265Z,4.10
2024-05-09T19:40:28.973Z,3.90
2024-05-09T19:42:58.906Z,3.90
2024-05-09T19:45:26.749Z,4.03
2024-05-09T19:47:53.781Z,3.88
2024-05-09T19:50:27.098Z,3.50
2024-05-09T19:53:03.150Z,3.80
2024-05-09T19:55:30.102Z,3.58
2024-05-09T19:57:57.227Z,3.60
2024-05-09T20:00:32.525Z,3.15
2024-05-09T20:03:02.847Z,3.35
2024-05-09T20:05:33.633Z,3.83
2024-05-09T20:08:00.974Z,3.40
2024-05-09T20:10:32.433Z,3.60
2024-05-09T20:13:01.641Z,3.45
2024-05-09T20:15:28.722Z,3.50
2024-05-09T20:17:55.880Z,3.60
2024-05-09T20:20:32.831Z,4.20
2024-05-09T20:23:05.795Z,4.32
2024-05-09T20:25:32.681Z,3.95
2024-05-09T20:27:59.648Z,4.00
2024-05-09T20:30:31.988Z,4.07
2024-05-09T20:33:02.875Z,3.60
2024-05-09T20:35:32.455Z,3.85
2024-05-09T20:38:00.832Z,3.70
2024-05-09T20:40:32.720Z,3.88
2024-05-09T20:43:03.409Z,3.80
2024-05-09T20:45:30.331Z,3.15
2024-05-09T20:47:57.639Z,3.78
2024-05-09T20:50:35.441Z,3.40
2024-05-09T20:53:08.780Z,3.60
2024-05-09T20:55:35.978Z,3.50
2024-05-09T20:58:03.088Z,3.60
2024-05-09T21:00:38.689Z,3.70
2024-05-09T21:03:09.429Z,3.38
2024-05-09T21:05:36.490Z,3.67
2024-05-09T21:08:03.764Z,3.45
2024-05-09T21:10:33.274Z,3.72
2024-05-09T21:13:02.672Z,3.47
2024-05-09T21:15:30.599Z,3.75
2024-05-09T21:17:57.680Z,3.47
2024-05-09T21:20:30.928Z,3.67
2024-05-09T21:22:59.653Z,3.70
2024-05-09T21:25:26.589Z,3.60
2024-05-09T21:27:53.572Z,3.60
2024-05-09T21:32:51.494Z,3.60
2024-05-09T21:35:18.975Z,3.40
2024-05-09T21:37:45.893Z,3.50
2024-05-09T21:40:17.036Z,3.15
2024-05-09T21:42:51.004Z,3.22
2024-05-09T21:45:17.994Z,3.38
2024-05-09T21:47:44.949Z,3.10
2024-05-09T21:50:22.080Z,3.55
2024-05-09T21:52:50.348Z,3.50
2024-05-09T21:55:17.298Z,3.40
2024-05-09T21:57:44.279Z,4.00
2024-05-09T22:00:28.462Z,3.90
2024-05-09T22:03:02.475Z,4.00
2024-05-09T22:05:29.763Z,3.72
2024-05-09T22:07:56.989Z,3.80
2024-05-09T22:10:30.577Z,3.55
2024-05-09T22:13:01.445Z,3.90
2024-05-09T22:15:28.953Z,4.10
2024-05-09T22:17:57.310Z,4.05
2024-05-09T22:20:33.541Z,4.25
2024-05-09T22:23:04.579Z,4.10
2024-05-09T22:25:32.369Z,4.40
2024-05-09T22:28:00.968Z,4.40
2024-05-09T22:30:35.548Z,4.70
2024-05-09T22:33:07.016Z,5.30
2024-05-09T22:35:34.290Z,4.80
2024-05-09T22:38:03.613Z,4.45
2024-05-09T22:40:39.151Z,4.72
2024-05-09T22:43:16.338Z,4.90
2024-05-09T22:45:43.365Z,4.70
2024-05-09T22:48:10.456Z,5.03
2024-05-09T22:50:37.590Z,5.10
2024-05-09T22:53:05.488Z,5.40
2024-05-09T22:55:32.444Z,5.00
2024-05-09T22:57:59.455Z,4.82
2024-05-09T23:00:31.433Z,5.15
2024-05-09T23:03:01.127Z,4.72
2024-05-09T23:05:28.563Z,4.90
2024-05-09T23:07:55.702Z,4.53
2024-05-09T23:10:30.920Z,4.90
2024-05-09T23:13:02.486Z,4.55
2024-05-09T23:15:29.656Z,4.55
2024-05-09T23:17:57.346Z,4.60
2024-05-09T23:22:54.374Z,4.28
2024-05-09T23:25:21.286Z,4.22
2024-05-09T23:27:48.222Z,4.22
2024-05-09T23:30:25.855Z,4.60
2024-05-09T23:33:00.633Z,4.25
2024-05-09T23:35:27.653Z,4.25
2024-05-09T23:37:54.498Z,4.57
2024-05-09T23:40:23.346Z,4.45
2024-05-09T23:42:50.917Z,4.15
2024-05-09T23:45:17.782Z,4.35
2024-05-09T23:47:44.895Z,4.50
2024-05-09T23:50:16.963Z,4.53
2024-05-09T23:52:50.869Z,4.40
2024-05-09T23:55:18.154Z,4.38
2024-05-09T23:57:45.272Z,4.50
